Time;durP1;ratioP1;P1;durP2;ratioP2;P2;SDS_P1;SDS_P2;PMS_P1;PMS_P2;Temp;Humidity;BMP_temperature;BMP_pressure;BME280_temperature;BME280_humidity;BME280_pressure;Samples;Min_cycle;Max_cycle;Signal;HPM_P1;HPM_P2
2022/06/29 05:21:35;;;;;;;41.10;20.83;;;;;;;21.18;100.00;99118.78;4507730;31;20141;-72
2022/06/29 05:24:02;;;;;;;34.80;19.50;;;;;;;21.18;100.00;99118.78;4476240;32;20418;-72
2022/06/29 05:26:28;;;;;;;46.08;21.25;;;;;;;21.07;100.00;99101.84;4473909;32;20025;-70
2022/06/29 05:28:54;;;;;;;34.75;19.50;;;;;;;20.65;100.00;99072.09;4461245;32;20018;-71
2022/06/29 05:31:23;;;;;;;35.15;23.12;;;;;;;20.83;100.00;99099.50;4480628;32;20088;-71
2022/06/29 06:52:56;;;;;;;37.17;11.70;;;;;;;21.36;100.00;99147.84;4438109;32;20197;-74
2022/06/29 06:55:23;;;;;;;19.45;12.18;;;;;;;21.36;100.00;99147.84;4409911;32;20050;-72
2022/06/29 06:57:50;;;;;;;30.25;13.70;;;;;;;21.64;100.00;99109.22;4407801;32;20043;-71
2022/06/29 07:00:16;;;;;;;22.30;13.68;;;;;;;21.95;100.00;99125.53;4398243;32;20065;-72
2022/06/29 07:02:50;;;;;;;17.95;12.93;;;;;;;21.92;100.00;99117.13;4409482;32;20072;-71
2022/06/29 07:05:17;;;;;;;32.47;12.32;;;;;;;22.47;100.00;99124.66;4411958;32;20047;-71
2022/06/29 07:07:44;;;;;;;19.40;12.45;;;;;;;22.11;100.00;99106.66;4412642;32;20038;-72
2022/06/29 07:10:10;;;;;;;28.45;12.27;;;;;;;21.68;100.00;99073.75;4412087;32;20120;-71
2022/06/29 07:12:36;;;;;;;24.30;12.93;;;;;;;21.97;100.00;99116.97;4403830;32;20038;-72
2022/06/29 07:15:04;;;;;;;23.50;12.05;;;;;;;22.14;100.00;99105.97;4413586;32;20064;-71
2022/06/29 07:17:30;;;;;;;23.98;13.73;;;;;;;22.11;100.00;99103.91;4415049;32;20128;-72
2022/06/29 07:19:57;;;;;;;20.17;12.52;;;;;;;22.37;100.00;99103.06;4412202;32;20475;-71
2022/06/29 07:22:24;;;;;;;20.00;13.75;;;;;;;22.17;100.00;99076.31;4412722;32;20387;-72
2022/06/29 07:24:50;;;;;;;26.98;13.65;;;;;;;22.05;100.00;99064.06;4398108;32;20098;-72
2022/06/29 07:27:17;;;;;;;19.83;12.30;;;;;;;22.21;100.00;99088.22;4396925;32;20035;-71
2022/06/29 07:29:44;;;;;;;24.70;13.13;;;;;;;22.51;100.00;99096.56;4396234;32;20085;-72
2022/06/29 07:32:11;;;;;;;20.60;13.25;;;;;;;22.68;100.00;99102.00;4409538;32;20068;-72
2022/06/29 07:34:38;;;;;;;23.85;13.52;;;;;;;22.53;100.00;99061.38;4399725;32;20077;-72
2022/06/29 07:37:05;;;;;;;20.40;12.02;;;;;;;23.02;100.00;99100.22;4410496;32;20022;-71
2022/06/29 07:39:32;;;;;;;16.30;12.27;;;;;;;22.73;100.00;99107.31;4413425;32;20047;-72
2022/06/29 07:41:58;;;;;;;18.70;12.57;;;;;;;22.91;100.00;99066.06;4419737;32;20068;-71
2022/06/29 07:44:31;;;;;;;23.92;14.85;;;;;;;22.95;100.00;99110.94;4412469;32;20043;-72
2022/06/29 07:46:59;;;;;;;19.52;12.73;;;;;;;23.33;100.00;99110.13;4414666;32;20050;-71
2022/06/29 07:49:26;;;;;;;15.32;12.07;;;;;;;22.67;100.00;99061.97;4412237;32;20610;-72
2022/06/29 07:51:54;;;;;;;17.48;12.55;;;;;;;23.29;100.00;99125.63;4400239;32;20061;-71
2022/06/29 07:54:21;;;;;;;20.48;12.70;;;;;;;23.01;100.00;99071.19;4414740;32;20086;-71
2022/06/29 07:56:48;;;;;;;18.48;12.25;;;;;;;23.16;100.00;99122.78;4413517;32;20038;-70
2022/06/29 07:59:14;;;;;;;21.00;11.30;;;;;;;23.39;100.00;99130.75;4414525;32;20064;-71
2022/06/29 08:01:42;;;;;;;17.87;11.12;;;;;;;23.02;100.00;99083.75;4407226;32;20072;-71
2022/06/29 08:04:10;;;;;;;16.35;11.35;;;;;;;23.40;100.00;99122.16;4414276;32;20031;-69
2022/06/29 08:06:36;;;;;;;13.45;10.10;;;;;;;22.58;100.00;99058.47;4396796;32;20068;-71
2022/06/29 08:09:03;;;;;;;14.52;10.77;;;;;;;23.26;100.00;99116.09;4396141;32;20073;-71
2022/06/29 08:11:30;;;;;;;18.17;12.02;;;;;;;23.44;100.00;99113.25;4388526;32;20072;-71
2022/06/29 08:13:56;;;;;;;23.65;11.02;;;;;;;23.38;100.00;99123.66;4386339;32;20053;-70
2022/06/29 08:16:23;;;;;;;17.15;10.98;;;;;;;23.21;100.00;99102.56;4388624;32;20061;-71
2022/06/29 08:18:49;;;;;;;13.15;10.63;;;;;;;23.41;100.00;99112.00;4391944;32;20119;-69
2022/06/29 08:21:16;;;;;;;13.73;11.30;;;;;;;23.35;100.00;99113.31;4404032;32;20052;-70
2022/06/29 08:23:43;;;;;;;25.23;11.65;;;;;;;23.35;100.00;99108.63;4406166;32;20046;-71
2022/06/29 08:26:09;;;;;;;13.13;11.48;;;;;;;23.27;100.00;99097.72;4410237;32;20039;-71
2022/06/29 08:28:36;;;;;;;16.85;11.18;;;;;;;23.39;100.00;99070.28;4402912;32;20047;-71
2022/06/29 08:31:03;;;;;;;14.95;10.98;;;;;;;23.50;100.00;99104.50;4393480;32;20050;-72
2022/06/29 08:33:30;;;;;;;13.48;11.55;;;;;;;23.37;100.00;99105.53;4403031;32;20086;-70
2022/06/29 08:35:57;;;;;;;13.25;11.10;;;;;;;23.44;100.00;99081.09;4403680;32;20068;-70
2022/06/29 08:38:25;;;;;;;15.02;10.43;;;;;;;23.54;100.00;99077.94;4401622;32;20042;-71
2022/06/29 08:40:53;;;;;;;18.08;11.50;;;;;;;23.88;100.00;99109.06;4399405;32;20727;-72
2022/06/29 08:43:20;;;;;;;12.15;9.93;;;;;;;24.07;100.00;99116.03;4397330;32;20133;-73
2022/06/29 08:45:48;;;;;;;12.37;11.07;;;;;;;24.17;100.00;99121.09;4389072;32;20077;-71
2022/06/29 08:48:16;;;;;;;14.07;10.73;;;;;;;24.27;100.00;99130.91;4402408;32;20153;-71
2022/06/29 08:50:49;;;;;;;16.35;10.52;;;;;;;23.91;100.00;99111.16;4397859;32;20052;-72
2022/06/29 08:53:18;;;;;;;16.65;10.85;;;;;;;23.93;100.00;99111.63;4383592;32;20039;-72
2022/06/29 08:55:49;;;;;;;12.13;10.68;;;;;;;24.01;100.00;99114.63;4400152;32;20042;-71
2022/06/29 08:58:20;;;;;;;14.02;10.70;;;;;;;24.47;100.00;99119.00;4394924;32;20445;-70
2022/06/29 09:00:49;;;;;;;;;;;;;;;24.44;100.00;99118.88;4384783;32;20043;-71
2022/06/29 09:03:18;;;;;;;12.65;10.23;;;;;;;24.52;100.00;99126.25;4386029;32;19995;-71
2022/06/29 09:05:49;;;;;;;15.95;10.80;;;;;;;24.55;100.00;99116.50;4384800;32;20056;-68
2022/06/29 09:08:17;;;;;;;17.87;10.82;;;;;;;23.86;100.00;99083.88;4399736;32;20056;-68
2022/06/29 09:10:45;;;;;;;19.37;10.15;;;;;;;24.03;100.00;99123.34;4397392;32;20042;-69
2022/06/29 09:13:17;;;;;;;17.10;12.60;;;;;;;24.09;100.00;99087.06;4398155;32;20470;-67
2022/06/29 09:15:44;;;;;;;14.73;11.07;;;;;;;24.37;100.00;99113.16;4399443;32;20031;-71
2022/06/29 09:18:31;;;;;;;16.05;10.10;;;;;;;24.49;100.00;99115.91;4393471;32;20420;-70
2022/06/29 09:21:04;;;;;;;13.50;10.70;;;;;;;24.25;100.00;99078.16;4391100;32;20034;-70
2022/06/29 09:23:32;;;;;;;11.80;10.02;;;;;;;24.51;100.00;99096.31;4388060;32;20096;-68
2022/06/29 09:25:59;;;;;;;21.48;11.50;;;;;;;24.54;100.00;99112.97;4386034;32;20117;-69
2022/06/29 09:28:34;;;;;;;12.98;10.45;;;;;;;24.20;100.00;99086.63;4392970;32;20432;-69
2022/06/29 09:31:01;;;;;;;35.63;12.90;;;;;;;24.40;100.00;99107.78;4412798;32;20094;-69
2022/06/29 09:33:30;;;;;;;13.38;11.35;;;;;;;24.38;100.00;99107.31;4401120;32;20073;-68
2022/06/29 09:36:05;;;;;;;15.60;11.98;;;;;;;24.38;100.00;99109.25;4392435;32;20451;-71
2022/06/29 09:38:33;;;;;;;18.30;12.40;;;;;;;24.55;100.00;99100.00;4386539;32;20343;-68
2022/06/29 09:41:16;;;;;;;17.10;11.12;;;;;;;24.77;100.00;99098.81;4395428;32;20076;-67
2022/06/29 09:43:52;;;;;;;13.13;11.73;;;;;;;25.00;100.00;99108.22;4399815;32;20442;-66
2022/06/29 09:46:22;;;;;;;17.25;11.02;;;;;;;24.88;100.00;99097.19;4400889;32;20205;-65
2022/06/29 09:48:52;;;;;;;13.02;10.82;;;;;;;24.89;100.00;99089.72;4401902;32;20043;-67
2022/06/29 09:51:33;;;;;;;18.62;10.68;;;;;;;25.42;100.00;99101.66;4405602;32;20038;-67
2022/06/29 09:54:10;;;;;;;16.17;11.27;;;;;;;25.43;100.00;99091.44;4415837;32;20220;-67
2022/06/29 09:56:47;;;;;;;10.68;9.18;;;;;;;25.68;100.00;99076.44;4414550;32;20035;-68
2022/06/29 10:02:35;;;;;;;15.82;9.25;;;;;;;24.91;100.00;99088.25;4414237;32;20083;-69
2022/06/29 10:05:54;;;;;;;11.15;9.68;;;;;;;25.48;100.00;99088.44;4416190;32;20395;-68
2022/06/29 10:08:15;;;;;;;13.02;9.27;;;;;;;25.76;100.00;99057.34;4414768;32;20039;-68
2022/06/29 10:10:46;;;;;;;12.80;8.35;;;;;;;25.98;100.00;99084.41;4413625;32;20060;-68
2022/06/29 10:13:39;;;;;;;11.55;9.43;;;;;;;25.27;100.00;99045.28;4402001;32;20060;-68
2022/06/29 10:16:12;;;;;;;14.85;9.57;;;;;;;25.68;100.00;99076.44;4399689;32;20397;-69
2022/06/29 10:19:16;;;;;;;11.68;9.02;;;;;;;26.14;100.00;99067.09;4400946;32;20417;-68
2022/06/29 10:21:43;;;;;;;11.30;8.93;;;;;;;25.79;100.00;99075.97;4399423;32;20051;-70
2022/06/29 10:24:09;;;;;;;10.50;8.38;;;;;;;26.12;100.00;99074.91;4399750;32;20056;-68
2022/06/29 10:26:36;;;;;;;11.38;8.88;;;;;;;26.25;100.00;99074.50;4412591;32;20038;-68
2022/06/29 10:29:05;;;;;;;11.68;8.10;;;;;;;26.25;100.00;99071.72;4427409;32;20043;-68
2022/06/29 10:32:00;;;;;;;9.18;7.30;;;;;;;26.24;100.00;99069.31;4403319;32;20034;-74
2022/06/29 10:35:04;;;;;;;9.32;7.90;;;;;;;25.95;100.00;99068.53;4414119;32;20352;-72
2022/06/29 10:37:32;;;;;;;9.82;8.00;;;;;;;26.30;100.00;99050.56;4415785;32;20115;-73
2022/06/29 10:40:05;;;;;;;8.52;7.03;;;;;;;26.16;100.00;99062.81;4398672;32;20062;-76
2022/06/29 10:45:32;;;;;;;16.05;8.80;;;;;;;25.81;100.00;99057.09;4399127;32;20408;-69
2022/06/29 10:48:01;;;;;;;9.45;8.15;;;;;;;25.49;100.00;99040.44;4404678;32;20387;-68
2022/06/29 10:50:31;;;;;;;8.45;6.85;;;;;;;25.77;100.00;99056.19;4405415;32;20058;-67
2022/06/29 10:53:03;;;;;;;7.82;7.03;;;;;;;26.30;100.00;99056.09;4404237;32;20383;-68
2022/06/29 10:55:33;;;;;;;12.70;6.47;;;;;;;26.67;100.00;99048.34;4414757;32;20076;-68
2022/06/29 10:58:02;;;;;;;9.25;6.78;;;;;;;26.71;100.00;99043.75;4414086;32;20038;-68
2022/06/29 11:00:34;;;;;;;9.23;6.10;;;;;;;26.53;100.00;99025.87;4418820;32;20387;-68
2022/06/29 11:03:10;;;;;;;9.60;6.22;;;;;;;26.89;100.00;99037.84;4410468;32;20115;-70
2022/06/29 11:12:01;;;;;;;9.55;6.85;;;;;;;28.10;100.00;99041.59;4414771;32;20811;-68
2022/06/29 11:14:00;;;;;;;14.70;5.93;;;;;;;29.65;100.00;99042.00;4415388;32;20103;-69
2022/06/29 11:16:29;;;;;;;7.53;6.70;;;;;;;28.70;100.00;99031.94;4408943;32;20056;-69
2022/06/29 11:18:56;;;;;;;7.25;6.30;;;;;;;28.44;100.00;99030.72;4400512;32;20056;-69
2022/06/29 11:21:24;;;;;;;7.43;6.45;;;;;;;28.54;100.00;99035.63;4399469;32;20065;-70
2022/06/29 11:24:03;;;;;;;32.85;6.93;;;;;;;28.46;100.00;99008.97;4398711;32;20042;-69
2022/06/29 11:26:33;;;;;;;10.60;5.95;;;;;;;29.43;100.00;99017.97;4413546;32;20042;-70
2022/06/29 11:29:03;;;;;;;11.27;5.97;;;;;;;29.99;100.00;99007.91;4415266;32;20038;-68
2022/06/29 11:31:30;;;;;;;8.95;5.50;;;;;;;30.42;100.00;99011.91;4411020;32;20034;-68
2022/06/29 11:33:57;;;;;;;8.35;5.43;;;;;;;30.70;100.00;98993.88;4416231;32;20056;-68
2022/06/29 11:36:26;;;;;;;5.10;4.60;;;;;;;30.78;100.00;99001.06;4414483;32;20375;-71
2022/06/29 11:39:03;;;;;;;7.10;5.57;;;;;;;30.21;100.00;99029.16;4414009;32;20047;-70
2022/06/29 11:44:30;;;;;;;6.45;5.85;;;;;;;30.13;100.00;98998.94;4423050;32;20068;-70
2022/06/29 11:46:58;;;;;;;6.12;5.62;;;;;;;30.51;100.00;99019.91;4403338;32;20055;-69
2022/06/29 11:49:33;;;;;;;7.15;5.10;;;;;;;30.46;100.00;99027.78;4403157;32;20051;-68
2022/06/29 11:52:05;;;;;;;10.98;5.80;;;;;;;30.19;100.00;99008.50;4414928;32;20046;-70
2022/06/29 11:54:47;;;;;;;6.25;5.60;;;;;;;30.82;100.00;99006.62;4409747;32;20072;-72
2022/06/29 11:57:16;;;;;;;11.05;4.90;;;;;;;31.34;100.00;99020.47;4402419;32;20077;-70
2022/06/29 11:59:44;;;;;;;6.65;5.50;;;;;;;30.79;100.00;98993.53;4406980;32;20050;-71
2022/06/29 12:02:15;;;;;;;4.65;3.72;;;;;;;30.88;100.00;99004.31;4418137;32;20043;-70
2022/06/29 12:04:44;;;;;;;4.18;3.85;;;;;;;31.13;96.74;99005.28;4418116;32;20103;-70
2022/06/29 12:07:13;;;;;;;12.80;4.62;;;;;;;30.30;100.00;99003.84;4416536;32;20034;-69
2022/06/29 12:09:41;;;;;;;5.05;4.53;;;;;;;30.67;100.00;99000.19;4416302;32;20030;-71
2022/06/29 12:12:10;;;;;;;8.63;5.60;;;;;;;30.11;100.00;98973.50;4426029;32;20910;-69
2022/06/29 12:14:40;;;;;;;6.03;5.35;;;;;;;30.03;100.00;99001.22;4420478;32;20057;-69
2022/06/29 12:17:09;;;;;;;5.43;5.03;;;;;;;30.48;100.00;98998.47;4417292;32;20038;-69
2022/06/29 12:19:38;;;;;;;5.72;5.25;;;;;;;30.46;100.00;98988.91;4417698;32;20050;-69
2022/06/29 12:22:14;;;;;;;28.73;18.27;;;;;;;30.03;100.00;98994.87;4401386;32;20038;-69
2022/06/29 12:24:41;;;;;;;8.70;5.57;;;;;;;29.83;100.00;98964.53;4401582;32;20047;-69
2022/06/29 12:27:07;;;;;;;9.45;4.68;;;;;;;29.86;100.00;98974.09;4392405;32;20055;-72
2022/06/29 12:29:33;;;;;;;9.98;5.30;;;;;;;30.34;100.00;98974.13;4422028;32;20514;-71
2022/06/29 12:32:00;;;;;;;7.15;5.90;;;;;;;30.12;100.00;98936.25;4419671;32;20064;-70
2022/06/29 12:34:27;;;;;;;10.88;5.12;;;;;;;30.69;100.00;98964.47;4425890;32;20039;-70
2022/06/29 12:36:53;;;;;;;7.57;6.03;;;;;;;30.72;100.00;98958.16;4430055;32;20157;-68
2022/06/29 12:39:19;;;;;;;7.30;5.57;;;;;;;30.74;100.00;98944.66;4419694;32;20074;-68
2022/06/29 12:41:46;;;;;;;12.02;5.37;;;;;;;31.63;100.00;98968.53;4409411;32;20037;-69
2022/06/29 12:44:12;;;;;;;10.55;5.62;;;;;;;31.25;100.00;98961.62;4403182;32;20104;-69
2022/06/29 12:46:39;;;;;;;7.07;4.70;;;;;;;30.49;100.00;98960.38;4417263;32;20064;-68
2022/06/29 12:49:05;;;;;;;6.57;5.12;;;;;;;30.02;100.00;98965.50;4418876;32;20034;-69
2022/06/29 12:51:32;;;;;;;7.05;4.70;;;;;;;30.13;100.00;98946.97;4424006;32;20081;-69
2022/06/29 12:53:58;;;;;;;9.55;4.93;;;;;;;30.58;100.00;98952.50;4432342;32;20046;-68
2022/06/29 12:56:25;;;;;;;7.62;5.15;;;;;;;30.55;100.00;98958.81;4418598;32;20034;-71
2022/06/29 12:58:52;;;;;;;6.37;5.43;;;;;;;30.15;100.00;98853.00;4429091;32;20114;-70
2022/06/29 13:01:19;;;;;;;11.23;6.53;;;;;;;31.28;100.00;98933.81;4417091;32;20061;-67
2022/06/29 13:03:45;;;;;;;9.02;5.20;;;;;;;31.47;100.00;98954.94;4417385;32;20052;-67
2022/06/29 13:06:12;;;;;;;6.32;5.20;;;;;;;31.30;100.00;98961.25;4410692;32;20430;-71
2022/06/29 13:08:39;;;;;;;5.62;4.72;;;;;;;30.53;100.00;98927.88;4408715;32;20038;-73
2022/06/29 13:11:05;;;;;;;7.68;5.78;;;;;;;29.78;100.00;98944.66;4404642;32;20030;-71
2022/06/29 13:13:32;;;;;;;9.18;5.47;;;;;;;29.13;100.00;98938.34;4422275;32;20439;-70
2022/06/29 13:15:58;;;;;;;5.00;4.60;;;;;;;28.79;100.00;98941.06;4417566;32;20066;-70
2022/06/29 13:18:25;;;;;;;9.68;5.37;;;;;;;29.37;100.00;98941.81;4422358;32;20076;-70
2022/06/29 13:20:51;;;;;;;6.18;4.93;;;;;;;30.04;100.00;98907.62;4421774;32;20072;-69
2022/06/29 13:23:18;;;;;;;8.40;4.85;;;;;;;30.97;100.00;98907.50;4423211;32;20452;-69
2022/06/29 13:25:45;;;;;;;7.25;5.03;;;;;;;30.76;100.00;98941.50;4423811;32;20333;-71
2022/06/29 13:28:12;;;;;;;7.97;5.18;;;;;;;31.03;100.00;98939.28;4399764;32;20348;-69
2022/06/29 13:30:39;;;;;;;6.22;5.50;;;;;;;31.50;100.00;98934.69;4399674;32;20042;-70
2022/06/29 13:33:13;;;;;;;4.93;4.50;;;;;;;31.78;100.00;98913.69;4398661;32;20436;-71
2022/06/29 13:35:39;;;;;;;5.85;4.25;;;;;;;31.29;99.12;98951.31;4400939;32;20521;-69
2022/06/29 13:38:07;;;;;;;5.15;4.75;;;;;;;30.82;100.00;98922.47;4401169;32;20100;-70
2022/06/29 13:40:33;;;;;;;5.30;4.90;;;;;;;31.23;100.00;98950.09;4397794;32;20026;-68
2022/06/29 13:43:00;;;;;;;6.32;4.72;;;;;;;30.75;100.00;98956.59;4404997;32;20379;-67
2022/06/29 13:45:28;;;;;;;4.57;4.18;;;;;;;29.61;100.00;98951.59;4408036;32;20419;-69
2022/06/29 13:47:56;;;;;;;9.88;4.35;;;;;;;29.93;100.00;98962.25;4401197;32;20035;-70
2022/06/29 13:50:22;;;;;;;4.90;4.50;;;;;;;29.67;100.00;98919.56;4400420;32;20119;-71
2022/06/29 13:52:49;;;;;;;5.18;4.50;;;;;;;29.40;100.00;98910.56;4417517;32;20083;-71
2022/06/29 13:55:15;;;;;;;10.98;5.30;;;;;;;29.08;100.00;98964.41;4422103;32;20050;-70
2022/06/29 13:57:43;;;;;;;8.38;4.60;;;;;;;29.13;100.00;98938.34;4416015;32;20099;-68
2022/06/29 14:00:11;;;;;;;6.37;4.78;;;;;;;28.80;100.00;98926.06;4419912;32;20072;-69
2022/06/29 14:02:39;;;;;;;7.32;4.65;;;;;;;28.96;100.00;98973.75;4401371;32;20108;-68
2022/06/29 14:05:06;;;;;;;6.62;4.62;;;;;;;28.83;100.00;98930.81;4399321;32;20042;-69
2022/06/29 14:07:33;;;;;;;9.88;5.32;;;;;;;28.99;100.00;98934.22;4400792;32;20460;-71
2022/06/29 14:10:00;;;;;;;8.07;5.10;;;;;;;29.30;100.00;98979.37;4399720;32;20047;-71
2022/06/29 14:12:26;;;;;;;7.12;4.53;;;;;;;29.21;100.00;98967.75;4414331;32;20064;-69
2022/06/29 14:14:52;;;;;;;6.62;4.85;;;;;;;29.07;100.00;98968.38;4422726;32;20076;-69
2022/06/29 14:17:19;;;;;;;4.90;4.30;;;;;;;28.97;100.00;98969.78;4423583;32;20052;-69
2022/06/29 14:19:45;;;;;;;4.95;4.28;;;;;;;28.73;100.00;98937.00;4419497;32;20162;-68
2022/06/29 14:22:12;;;;;;;4.45;4.15;;;;;;;28.72;100.00;98929.88;4403442;32;20085;-69
2022/06/29 14:24:39;;;;;;;4.70;4.37;;;;;;;29.06;100.00;98958.44;4415772;32;20064;-69
2022/06/29 14:27:05;;;;;;;5.37;4.50;;;;;;;29.54;100.00;98960.62;4412731;32;20051;-72
2022/06/29 14:29:32;;;;;;;4.75;4.25;;;;;;;29.73;100.00;98925.56;4413264;32;20077;-72
2022/06/29 14:31:59;;;;;;;7.00;5.22;;;;;;;30.06;100.00;98899.72;4415478;32;20065;-70
2022/06/29 14:34:25;;;;;;;5.85;5.32;;;;;;;30.75;100.00;98923.25;4402228;32;20100;-69
2022/06/29 14:36:52;;;;;;;6.35;4.82;;;;;;;30.31;100.00;98927.69;4401695;32;20030;-69
2022/06/29 14:39:18;;;;;;;6.95;4.78;;;;;;;30.55;100.00;98956.03;4401806;32;20084;-69
2022/06/29 14:41:45;;;;;;;7.12;5.05;;;;;;;30.26;100.00;98914.16;4413756;32;20034;-69
2022/06/29 14:44:12;;;;;;;4.62;4.22;;;;;;;30.41;100.00;98945.62;4418105;32;20461;-69
2022/06/29 14:46:45;;;;;;;12.00;4.40;;;;;;;30.86;100.00;98920.50;4409136;32;20385;-71
2022/06/29 14:49:11;;;;;;;4.60;4.20;;;;;;;31.70;99.40;98959.41;4399656;32;20086;-69
2022/06/29 14:51:38;;;;;;;4.75;4.12;;;;;;;31.61;99.11;98883.84;4411338;32;20072;-68
2022/06/29 14:54:05;;;;;;;13.00;3.87;;;;;;;31.82;93.64;98920.06;4420282;32;20046;-70
2022/06/29 14:56:32;;;;;;;4.47;4.07;;;;;;;31.73;96.72;98911.31;4419879;32;20459;-69
2022/06/29 14:58:59;;;;;;;4.80;3.97;;;;;;;32.21;93.96;98944.38;4414518;32;20054;-69
2022/06/29 15:01:26;;;;;;;7.78;4.35;;;;;;;32.37;92.29;98948.75;4401783;32;20447;-69
2022/06/29 15:03:52;;;;;;;5.47;4.90;;;;;;;32.13;90.48;98947.56;4427214;32;20101;-71
2022/06/29 15:06:19;;;;;;;5.65;3.78;;;;;;;31.63;93.51;98934.37;4427343;32;20457;-71
2022/06/29 15:08:45;;;;;;;5.20;4.72;;;;;;;31.33;98.08;98932.66;4412931;32;20049;-69
2022/06/29 15:11:12;;;;;;;7.70;4.55;;;;;;;30.95;100.00;98940.41;4414994;32;20124;-69
2022/06/29 15:13:38;;;;;;;5.25;4.75;;;;;;;30.42;100.00;98894.47;4424182;32;20403;-69
2022/06/29 15:16:05;;;;;;;5.50;5.00;;;;;;;30.44;100.00;98930.97;4421958;32;20035;-68
2022/06/29 15:18:32;;;;;;;5.18;4.65;;;;;;;29.44;100.00;98892.78;4420982;32;20085;-69
2022/06/29 15:20:59;;;;;;;5.22;4.50;;;;;;;28.87;100.00;98890.09;4400581;32;20369;-69
2022/06/29 15:23:25;;;;;;;4.93;4.40;;;;;;;29.75;100.00;98889.91;4425617;32;20064;-69
2022/06/29 15:25:51;;;;;;;4.53;4.22;;;;;;;29.91;100.00;98887.69;4423051;32;20089;-69
2022/06/29 15:28:24;;;;;;;7.80;4.87;;;;;;;30.61;100.00;98918.37;4422955;32;20157;-69
2022/06/29 15:30:51;;;;;;;13.73;5.10;;;;;;;30.15;100.00;98918.81;4423748;32;20058;-69
2022/06/29 15:38:45;;;;;;;10.75;4.95;;;;;;;29.72;100.00;98913.66;4408777;32;20042;-69
2022/06/29 15:38:50;;;;;;;5.50;4.55;;;;;;;30.36;100.00;98910.66;4424779;32;20075;-68
2022/06/29 15:41:16;;;;;;;13.60;4.55;;;;;;;30.04;100.00;98902.87;4426130;32;20035;-68
2022/06/29 15:43:43;;;;;;;7.35;4.32;;;;;;;30.31;100.00;98866.59;4420292;32;20098;-70
2022/06/29 15:46:12;;;;;;;6.15;4.85;;;;;;;30.99;100.00;98905.13;4418203;32;20046;-68
2022/06/29 15:48:39;;;;;;;4.47;4.07;;;;;;;30.40;100.00;98858.75;4419074;32;20165;-68
2022/06/29 15:51:06;;;;;;;9.93;4.60;;;;;;;31.10;100.00;98883.72;4417752;32;20104;-71
2022/06/29 15:56:17;;;;;;;6.03;3.97;;;;;;;31.20;100.00;98864.69;4421625;32;20038;-70
2022/06/29 15:58:43;;;;;;;6.65;4.93;;;;;;;30.60;100.00;98855.66;4411914;32;20418;-68
2022/06/29 16:01:10;;;;;;;8.98;4.85;;;;;;;29.98;100.00;98854.47;4414103;32;20030;-68
2022/06/29 16:03:37;;;;;;;7.75;4.65;;;;;;;30.33;100.00;98836.47;4406166;32;20034;-68
2022/06/29 16:06:03;;;;;;;4.47;4.12;;;;;;;30.89;100.00;98862.16;4423366;32;20043;-70
2022/06/29 16:08:31;;;;;;;4.47;4.12;;;;;;;30.96;100.00;98844.75;4418761;32;20050;-71
2022/06/29 16:10:58;;;;;;;5.45;4.80;;;;;;;31.07;100.00;98840.03;4416287;32;20714;-68
2022/06/29 16:13:25;;;;;;;9.00;4.78;;;;;;;30.60;100.00;98850.94;4416895;32;20068;-69
2022/06/29 16:15:51;;;;;;;8.23;4.47;;;;;;;31.19;100.00;98872.22;4406887;32;20390;-68
2022/06/29 16:18:18;;;;;;;5.32;4.60;;;;;;;30.99;100.00;98852.31;4428479;32;20326;-69
2022/06/29 16:20:44;;;;;;;4.93;4.62;;;;;;;31.10;100.00;98861.47;4422995;32;20468;-68
2022/06/29 16:23:11;;;;;;;12.57;4.80;;;;;;;30.61;100.00;98860.03;4418000;32;20080;-68
2022/06/29 16:25:38;;;;;;;8.05;4.72;;;;;;;30.72;100.00;98830.34;4423017;32;20068;-70
2022/06/29 16:28:04;;;;;;;5.82;5.32;;;;;;;30.78;100.00;98850.22;4422635;32;20042;-68
2022/06/29 16:30:30;;;;;;;8.77;5.10;;;;;;;30.78;100.00;98839.88;4421535;32;20114;-68
2022/06/29 16:32:57;;;;;;;7.05;4.93;;;;;;;31.31;99.12;98809.88;4424787;32;20034;-68
2022/06/29 16:35:23;;;;;;;6.72;4.50;;;;;;;30.91;100.00;98848.66;4425052;32;20042;-68
2022/06/29 16:37:50;;;;;;;12.20;4.60;;;;;;;30.62;100.00;98842.19;4424878;32;20364;-67
2022/06/29 16:40:17;;;;;;;6.30;4.40;;;;;;;30.78;100.00;98839.09;4410476;32;20428;-71
2022/06/29 16:42:43;;;;;;;5.20;4.40;;;;;;;30.85;100.00;98841.09;4422143;32;20060;-69
2022/06/29 16:45:09;;;;;;;5.72;4.72;;;;;;;30.94;100.00;98834.00;4432588;32;20042;-69
2022/06/29 16:47:36;;;;;;;9.88;4.53;;;;;;;31.53;100.00;98843.31;4432469;32;20907;-68
2022/06/29 16:50:03;;;;;;;5.80;5.22;;;;;;;31.93;98.96;98844.13;4426006;32;20064;-69
2022/06/29 16:52:29;;;;;;;9.68;5.30;;;;;;;30.55;100.00;98792.16;4416673;32;20104;-70
2022/06/29 16:54:56;;;;;;;15.90;6.95;;;;;;;30.21;100.00;98839.56;4413837;32;20066;-70
2022/06/29 16:57:24;;;;;;;7.82;7.05;;;;;;;29.52;100.00;98822.34;4400826;32;20086;-68
2022/06/29 16:59:51;;;;;;;10.68;6.65;;;;;;;28.93;100.00;98804.69;4405279;32;20039;-80
2022/06/29 17:02:18;;;;;;;9.27;7.10;;;;;;;28.32;100.00;98812.19;4403725;32;20042;-70
2022/06/29 17:04:44;;;;;;;10.52;8.18;;;;;;;28.53;100.00;98834.66;4414697;32;20051;-71
2022/06/29 17:07:11;;;;;;;10.65;7.75;;;;;;;28.56;100.00;98828.34;4416345;32;20038;-69
2022/06/29 17:09:37;;;;;;;9.05;8.07;;;;;;;27.75;100.00;98801.84;4400356;32;20058;-69
2022/06/29 17:12:04;;;;;;;13.75;7.60;;;;;;;27.93;100.00;98829.00;4404210;32;20039;-69
2022/06/29 17:14:30;;;;;;;11.07;8.63;;;;;;;28.03;100.00;98806.25;4401265;32;20189;-69
2022/06/29 17:16:57;;;;;;;15.20;7.47;;;;;;;28.22;100.00;98819.97;4408379;32;20072;-72
2022/06/29 17:19:23;;;;;;;11.43;8.25;;;;;;;28.08;100.00;98816.97;4416270;32;20078;-69
2022/06/29 17:21:50;;;;;;;8.23;7.47;;;;;;;27.76;100.00;98770.22;4410301;32;20787;-69
2022/06/29 17:24:16;;;;;;;10.90;8.38;;;;;;;28.03;100.00;98822.84;4386899;32;20039;-69
2022/06/29 17:26:43;;;;;;;10.65;9.25;;;;;;;28.09;100.00;98821.34;4401741;32;20066;-69
2022/06/29 17:29:09;;;;;;;11.10;8.82;;;;;;;27.68;100.00;98796.19;4421059;32;20387;-69
2022/06/29 17:31:36;;;;;;;12.13;9.07;;;;;;;27.80;100.00;98823.66;4415587;32;20060;-71
2022/06/29 17:34:03;;;;;;;10.02;8.98;;;;;;;27.61;100.00;98812.66;4400952;32;20089;-72
2022/06/29 17:36:29;;;;;;;10.48;8.63;;;;;;;27.47;100.00;98808.47;4412813;32;20030;-71
2022/06/29 17:38:56;;;;;;;12.80;8.57;;;;;;;27.10;100.00;98756.47;4419942;32;20873;-72
2022/06/29 17:41:22;;;;;;;11.10;9.48;;;;;;;26.98;100.00;98814.66;4401664;32;20056;-69
2022/06/29 17:43:49;;;;;;;11.18;9.45;;;;;;;27.13;100.00;98837.84;4416193;32;20389;-71
2022/06/29 17:46:15;;;;;;;15.70;9.95;;;;;;;26.85;100.00;98799.41;4415505;32;20048;-71
2022/06/29 17:48:43;;;;;;;15.77;9.88;;;;;;;26.63;100.00;98793.44;4422675;32;20097;-70
2022/06/29 17:51:09;;;;;;;14.40;9.13;;;;;;;26.80;100.00;98831.66;4425044;32;20369;-73
2022/06/29 17:53:37;;;;;;;12.27;9.57;;;;;;;26.97;100.00;98848.97;4430382;32;20060;-70
2022/06/29 17:56:09;;;;;;;15.02;10.07;;;;;;;26.77;100.00;98821.38;4429334;32;20221;-69
2022/06/29 17:58:36;;;;;;;14.07;10.60;;;;;;;27.04;100.00;98862.12;4422849;32;20064;-70
2022/06/29 18:01:04;;;;;;;11.30;9.77;;;;;;;27.04;100.00;98862.91;4426638;32;20074;-70
2022/06/29 18:03:30;;;;;;;16.73;9.75;;;;;;;26.92;100.00;98838.22;4412576;32;20080;-71
2022/06/29 18:05:57;;;;;;;11.85;10.23;;;;;;;26.76;100.00;98805.97;4399961;32;20034;-72
2022/06/29 18:08:23;;;;;;;14.82;10.02;;;;;;;26.85;100.00;98843.59;4415142;32;20098;-72
2022/06/29 18:10:50;;;;;;;11.93;10.50;;;;;;;26.50;100.00;98833.38;4416687;32;20082;-71
2022/06/29 18:13:16;;;;;;;17.25;10.38;;;;;;;26.32;100.00;98806.19;4420322;32;20058;-72
2022/06/29 18:15:43;;;;;;;15.70;11.38;;;;;;;26.36;100.00;98807.06;4408586;32;20077;-71
2022/06/29 18:18:10;;;;;;;13.43;10.60;;;;;;;26.55;100.00;98858.75;4422128;32;20046;-72
2022/06/29 18:20:36;;;;;;;11.30;10.10;;;;;;;26.61;100.00;98853.72;4419967;32;20068;-72
2022/06/29 18:23:02;;;;;;;21.62;10.98;;;;;;;26.43;100.00;98837.56;4421405;32;20225;-72
2022/06/29 18:25:29;;;;;;;16.45;9.82;;;;;;;26.42;100.00;98860.84;4422388;32;20042;-71